KPRO/PRO METAR and TAF weather

Enter ICAO airport designator
Station Type Date Time Source
KPRO METAR 2020/07/12 03:15 UTC NOAA

KPRO 120315Z AUTO 05004KT 10SM CLR 22/19 A2995 RMK AO2 T02150187


Station Type Date Time Source
KPRO Decoded METAR 2020/07/12 03:15 UTC NOAA

Station name not available
Jul 11, 2020 - 11:15 PM EDT / 2020.07.12 0315 UTC
Wind: from the NE (050 degrees) at 5 MPH (4 KT):0
Visibility: 10 mile(s):0
Sky conditions: clear
Temperature: 70.7 F (21.5 C)
Dew Point: 65.7 F (18.7 C)
Relative Humidity: 84%
Pressure (altimeter): 29.95 in. Hg (1014 hPa)
ob: KPRO 120315Z AUTO 05004KT 10SM CLR 22/19 A2995 RMK AO2 T02150187
cycle: 3

Station Type Date Time Source
KPRO TAF UTC NOAA

Error!

Example: see airport list